createdAt,value
2022-09-17T00:02:13.300Z,12.32
2022-09-17T00:12:41.540Z,12.30
2022-09-17T00:23:09.931Z,12.03
2022-09-17T00:33:38.260Z,11.67
2022-09-17T00:44:42.293Z,11.61
2022-09-17T00:55:17.929Z,11.60
2022-09-17T01:05:50.231Z,11.63
2022-09-17T01:16:25.070Z,11.53
2022-09-17T01:27:25.501Z,11.39
2022-09-17T01:38:03.171Z,11.18
2022-09-17T01:48:34.984Z,11.22
2022-09-17T01:59:09.355Z,11.24
2022-09-17T02:09:42.334Z,11.07
2022-09-17T02:20:11.440Z,11.10
2022-09-17T02:30:39.765Z,11.00
2022-09-17T02:41:17.637Z,10.67
2022-09-17T02:51:55.094Z,10.55
2022-09-17T03:02:27.593Z,10.63
2022-09-17T03:12:56.556Z,10.52
2022-09-17T03:23:24.592Z,10.45
2022-09-17T03:33:52.521Z,10.37
2022-09-17T03:44:21.374Z,10.33
2022-09-17T03:54:49.456Z,10.40
2022-09-17T04:05:17.492Z,10.39
2022-09-17T04:15:46.142Z,10.42
2022-09-17T04:26:14.730Z,10.21
2022-09-17T04:36:42.680Z,10.11
2022-09-17T04:47:10.731Z,10.10
2022-09-17T04:57:38.652Z,10.11
2022-09-17T05:08:08.484Z,9.93
2022-09-17T05:18:36.474Z,9.67
2022-09-17T05:29:03.260Z,9.95
2022-09-17T05:39:31.234Z,10.24
2022-09-17T05:49:59.169Z,10.52
2022-09-17T06:00:27.207Z,10.83
2022-09-17T06:10:58.970Z,11.19
2022-09-17T06:21:30.034Z,11.58
2022-09-17T06:31:56.462Z,11.81
2022-09-17T06:42:24.659Z,12.01
2022-09-17T06:52:54.502Z,11.90
2022-09-17T07:03:23.404Z,11.78
2022-09-17T07:13:51.517Z,11.90
2022-09-17T07:24:19.540Z,12.08
2022-09-17T07:34:47.528Z,12.36
2022-09-17T07:45:15.650Z,12.41
2022-09-17T07:55:43.889Z,12.56
2022-09-17T08:06:14.051Z,12.79
2022-09-17T08:16:47.305Z,12.90
2022-09-17T08:27:15.228Z,13.05
2022-09-17T08:37:41.692Z,13.27
2022-09-17T08:48:15.751Z,13.59
2022-09-17T08:59:04.594Z,13.75
2022-09-17T09:09:37.033Z,13.81
2022-09-17T09:20:05.664Z,13.85
2022-09-17T09:30:47.996Z,13.75
2022-09-17T09:41:20.579Z,13.64
2022-09-17T09:51:56.458Z,13.67
2022-09-17T10:02:25.990Z,13.62
2022-09-17T10:13:08.719Z,13.66
2022-09-17T10:23:39.873Z,13.79
2022-09-17T10:34:19.918Z,13.77
2022-09-17T10:44:56.030Z,13.71
2022-09-17T10:55:33.605Z,13.64
2022-09-17T11:06:23.586Z,13.63
2022-09-17T11:17:00.317Z,13.75
2022-09-17T11:28:07.855Z,13.80
2022-09-17T11:38:44.746Z,13.71
2022-09-17T11:49:19.319Z,13.66
2022-09-17T11:59:55.500Z,13.72
2022-09-17T12:10:37.130Z,13.72
2022-09-17T12:21:10.832Z,13.85
2022-09-17T12:31:47.624Z,13.92
2022-09-17T12:42:25.973Z,13.82
2022-09-17T12:53:09.272Z,13.67
2022-09-17T13:03:42.011Z,13.68
2022-09-17T13:14:22.041Z,13.77
2022-09-17T13:25:05.254Z,13.82
2022-09-17T13:35:53.072Z,13.84
2022-09-17T13:46:25.138Z,13.77
2022-09-17T13:57:08.675Z,13.64
2022-09-17T14:07:49.127Z,13.66
2022-09-17T14:18:43.610Z,13.70
2022-09-17T14:29:20.586Z,13.85
2022-09-17T14:39:53.340Z,13.76
2022-09-17T14:50:26.745Z,13.68
2022-09-17T15:00:55.867Z,13.69
2022-09-17T15:11:24.021Z,13.73
2022-09-17T15:21:55.253Z,13.76
2022-09-17T15:32:23.509Z,13.84
2022-09-17T15:42:57.263Z,13.73
2022-09-17T15:53:27.918Z,13.62
2022-09-17T16:04:21.090Z,13.60
2022-09-17T16:14:54.349Z,13.55
2022-09-17T16:25:25.285Z,13.51
2022-09-17T16:35:53.332Z,13.22
2022-09-17T16:46:19.894Z,13.18
2022-09-17T16:56:48.511Z,13.37
2022-09-17T17:07:16.567Z,13.56
2022-09-17T17:17:44.580Z,13.71
2022-09-17T17:28:15.049Z,13.87
2022-09-17T17:38:43.133Z,14.00
2022-09-17T17:49:11.105Z,13.95
2022-09-17T17:59:39.106Z,13.83
2022-09-17T18:10:08.905Z,13.85
2022-09-17T18:20:36.849Z,13.66
2022-09-17T18:31:07.580Z,13.47
2022-09-17T18:41:37.738Z,13.52
2022-09-17T18:52:05.995Z,13.59
2022-09-17T19:02:35.612Z,13.67
2022-09-17T19:13:03.966Z,13.67
2022-09-17T19:23:32.853Z,13.47
2022-09-17T19:34:01.783Z,13.32
2022-09-17T19:44:30.817Z,12.95
2022-09-17T19:54:58.963Z,12.69
2022-09-17T20:05:28.119Z,12.53
2022-09-17T20:15:56.351Z,12.40
2022-09-17T20:26:24.580Z,12.24
2022-09-17T20:37:06.506Z,12.07
2022-09-17T20:47:39.480Z,11.94
2022-09-17T20:58:09.900Z,11.82
2022-09-17T21:08:37.814Z,11.66
2022-09-17T21:19:09.737Z,11.63
2022-09-17T21:29:37.669Z,11.67
2022-09-17T21:40:07.790Z,11.65
2022-09-17T21:50:35.752Z,11.63
2022-09-17T22:01:09.261Z,11.55
2022-09-17T22:11:38.792Z,11.43
2022-09-17T22:22:06.789Z,11.38
2022-09-17T22:32:34.671Z,11.40
2022-09-17T22:43:02.516Z,11.51
2022-09-17T22:53:30.390Z,11.51
2022-09-17T23:03:59.335Z,11.51
2022-09-17T23:14:27.331Z,11.61
2022-09-17T23:24:55.146Z,11.71
2022-09-17T23:35:23.233Z,11.90
2022-09-17T23:45:56.775Z,12.08
2022-09-17T23:56:27.930Z,12.13
